Terminal Aerodrome Forecast
Issued by NWS

Home | Current Version | Previous Version | Text Only | Print | Product List | Glossary On
Versions: 1 2 3 4 5 6 7 8 9 10 11 12 13 14 15 16 17
000
FTUS41 KBGM 301100
TAFRME
TAF
KRME 301124Z 3012/3112 12005KT P6SM SCT150
     FM301400 14007KT P6SM SCT100
     FM302200 11005KT P6SM SCT040 BKN150
     FM310800 11006KT P6SM OVC060 PROB30 3108/3112 -SHRA OVC030=

USA.gov is the U.S. government's official web portal to all federal, state and local government web resources and services.